Time,TemperatureF,DewpointF,PressureIn,WindDirection,WindDirectionDegrees,WindSpeedMPH,WindSpeedGustMPH,Humidity,HourlyPrecipIn,Conditions,Clouds,dailyrainin,SoftwareType,DateUTC
2013-03-07 00:02:00,33.0,30.0,30.18,West,273,2.0,5.0,90,0.00,,,0.00,,2013-03-07 05:02:00,
2013-03-07 00:12:00,33.0,30.0,30.18,West,273,2.0,5.0,90,0.00,,,0.00,,2013-03-07 05:12:00,
2013-03-07 00:22:00,32.0,29.0,30.17,West,273,3.0,5.0,90,0.00,,,0.00,,2013-03-07 05:22:00,
2013-03-07 00:32:00,32.0,30.0,30.17,West,281,4.0,7.0,91,0.00,,,0.00,,2013-03-07 05:32:00,
2013-03-07 00:42:00,32.0,30.0,30.17,West,281,4.0,7.0,91,0.00,,,0.00,,2013-03-07 05:42:00,
2013-03-07 00:52:00,32.0,30.0,30.18,WNW,284,4.0,7.0,92,0.00,,,0.00,,2013-03-07 05:52:00,
2013-03-07 01:02:00,32.0,30.0,30.17,West,268,5.0,9.0,93,0.00,,,0.00,,2013-03-07 06:02:00,
2013-03-07 01:11:00,32.0,30.0,30.17,West,268,5.0,9.0,93,0.00,,,0.00,,2013-03-07 06:11:00,
2013-03-07 01:21:00,31.0,29.0,30.18,NW,310,2.0,6.0,93,0.00,,,0.00,,2013-03-07 06:21:00,
2013-03-07 01:32:00,31.0,29.0,30.18,NW,307,2.0,5.0,93,0.00,,,0.00,,2013-03-07 06:32:00,
2013-03-07 01:42:00,31.0,29.0,30.18,NW,307,2.0,5.0,93,0.00,,,0.00,,2013-03-07 06:42:00,
2013-03-07 01:52:00,31.0,29.0,30.18,NW,307,2.0,4.0,94,0.00,,,0.00,,2013-03-07 06:52:00,
2013-03-07 02:02:00,31.0,29.0,30.18,NW,307,0.0,3.0,94,0.00,,,0.00,,2013-03-07 07:02:00,
2013-03-07 02:11:00,31.0,29.0,30.18,NW,307,0.0,3.0,94,0.00,,,0.00,,2013-03-07 07:11:00,
2013-03-07 02:22:00,32.0,30.0,30.18,WNW,296,2.0,5.0,94,0.00,,,0.00,,2013-03-07 07:22:00,
2013-03-07 02:32:00,32.0,30.0,30.18,WNW,296,3.0,4.0,94,0.00,,,0.00,,2013-03-07 07:32:00,
2013-03-07 02:43:00,32.0,30.0,30.18,WNW,296,3.0,4.0,94,0.00,,,0.00,,2013-03-07 07:43:00,
2013-03-07 02:52:00,31.0,29.0,30.18,West,277,3.0,6.0,94,0.00,,,0.00,,2013-03-07 07:52:00,
2013-03-07 03:03:00,32.0,30.0,30.18,West,273,1.0,6.0,94,0.00,,,0.00,,2013-03-07 08:03:00,
2013-03-07 03:12:00,32.0,30.0,30.18,West,273,1.0,6.0,94,0.00,,,0.00,,2013-03-07 08:12:00,
2013-03-07 03:23:00,32.0,30.0,30.18,West,273,3.0,5.0,94,0.00,,,0.00,,2013-03-07 08:23:00,
2013-03-07 03:34:00,32.0,30.0,30.18,WNW,296,1.0,5.0,94,0.00,,,0.00,,2013-03-07 08:34:00,
2013-03-07 03:44:00,32.0,30.0,30.18,WNW,296,1.0,5.0,94,0.00,,,0.00,,2013-03-07 08:44:00,
2013-03-07 03:53:00,32.0,30.0,30.18,NW,313,3.0,6.0,94,0.00,,,0.00,,2013-03-07 08:53:00,
2013-03-07 04:03:00,32.0,30.0,30.18,NW,307,2.0,5.0,94,0.00,,,0.00,,2013-03-07 09:03:00,
2013-03-07 04:23:00,32.0,30.0,30.19,WNW,300,1.0,5.0,94,0.00,,,0.00,,2013-03-07 09:23:00,
2013-03-07 04:33:00,31.0,29.0,30.19,NW,306,3.0,6.0,94,0.00,,,0.00,,2013-03-07 09:33:00,
2013-03-07 04:43:00,31.0,29.0,30.19,NW,306,3.0,6.0,94,0.00,,,0.00,,2013-03-07 09:43:00,
2013-03-07 04:52:00,31.0,29.0,30.20,NW,308,2.0,5.0,94,0.00,,,0.00,,2013-03-07 09:52:00,
2013-03-07 05:04:00,32.0,30.0,30.20,NW,321,2.0,6.0,94,0.00,,,0.00,,2013-03-07 10:04:00,
2013-03-07 05:13:00,32.0,30.0,30.20,NW,321,2.0,6.0,94,0.00,,,0.00,,2013-03-07 10:13:00,
2013-03-07 05:23:00,32.0,30.0,30.20,WNW,294,1.0,4.0,94,0.00,,,0.00,,2013-03-07 10:23:00,
2013-03-07 05:33:00,32.0,30.0,30.20,WNW,294,1.0,4.0,94,0.00,,,0.00,,2013-03-07 10:33:00,
2013-03-07 05:43:00,32.0,30.0,30.20,WNW,294,1.0,4.0,94,0.00,,,0.00,,2013-03-07 10:43:00,
2013-03-07 05:52:00,32.0,30.0,30.21,West,273,3.0,5.0,94,0.00,,,0.00,,2013-03-07 10:52:00,
2013-03-07 06:03:00,32.0,30.0,30.21,WNW,283,2.0,5.0,94,0.00,,,0.00,,2013-03-07 11:03:00,
2013-03-07 06:12:00,32.0,30.0,30.21,WNW,283,2.0,5.0,94,0.00,,,0.00,,2013-03-07 11:12:00,
2013-03-07 06:23:00,32.0,30.0,30.21,WSW,254,2.0,5.0,94,0.00,,,0.00,,2013-03-07 11:23:00,
2013-03-07 06:33:00,32.0,30.0,30.21,West,265,3.0,6.0,93,0.00,,,0.00,,2013-03-07 11:33:00,
2013-03-07 06:43:00,32.0,30.0,30.21,West,265,3.0,6.0,93,0.00,,,0.00,,2013-03-07 11:43:00,
2013-03-07 06:53:00,32.0,30.0,30.22,West,266,2.0,5.0,94,0.00,,,0.00,,2013-03-07 11:53:00,
2013-03-07 07:04:00,32.0,30.0,30.22,WSW,256,3.0,6.0,93,0.00,,,0.00,,2013-03-07 12:04:00,
2013-03-07 07:12:00,32.0,30.0,30.22,WSW,256,3.0,6.0,93,0.00,,,0.00,,2013-03-07 12:12:00,
2013-03-07 07:23:00,32.0,30.0,30.23,West,280,2.0,5.0,93,0.00,,,0.00,,2013-03-07 12:23:00,
2013-03-07 07:34:00,32.0,30.0,30.23,West,280,2.0,5.0,93,0.00,,,0.00,,2013-03-07 12:34:00,
2013-03-07 07:43:00,32.0,30.0,30.23,West,280,2.0,5.0,93,0.00,,,0.00,,2013-03-07 12:43:00,
2013-03-07 07:52:00,31.0,29.0,30.24,West,265,4.0,7.0,94,0.00,,,0.00,,2013-03-07 12:52:00,
2013-03-07 08:03:00,31.0,29.0,30.24,WSW,255,3.0,7.0,94,0.00,,,0.00,,2013-03-07 13:03:00,
2013-03-07 08:23:00,31.0,30.0,30.25,WNW,285,3.0,6.0,95,0.00,,,0.00,,2013-03-07 13:23:00,
2013-03-07 08:33:00,32.0,31.0,30.25,WNW,286,3.0,6.0,95,0.00,,,0.00,,2013-03-07 13:33:00,
2013-03-07 08:53:00,31.0,29.0,30.25,West,277,4.0,8.0,94,0.00,,,0.00,,2013-03-07 13:53:00,
2013-03-07 09:02:00,31.0,30.0,30.26,West,264,2.0,7.0,95,0.00,,,0.00,,2013-03-07 14:02:00,
2013-03-07 09:12:00,31.0,30.0,30.26,West,264,2.0,7.0,95,0.00,,,0.00,,2013-03-07 14:12:00,
2013-03-07 09:23:00,32.0,30.0,30.26,WNW,290,5.0,9.0,94,0.00,,,0.00,,2013-03-07 14:23:00,
2013-03-07 09:33:00,32.0,30.0,30.26,West,263,4.0,10.0,93,0.00,,,0.00,,2013-03-07 14:33:00,
2013-03-07 09:42:00,32.0,30.0,30.26,West,263,4.0,10.0,93,0.00,,,0.00,,2013-03-07 14:42:00,
2013-03-07 09:53:00,32.0,30.0,30.27,NW,311,5.0,9.0,93,0.00,,,0.00,,2013-03-07 14:53:00,
2013-03-07 10:03:00,32.0,30.0,30.27,West,260,4.0,7.0,93,0.00,,,0.00,,2013-03-07 15:03:00,
2013-03-07 10:12:00,32.0,30.0,30.27,West,260,4.0,7.0,93,0.00,,,0.00,,2013-03-07 15:12:00,
2013-03-07 10:23:00,33.0,31.0,30.28,NW,307,5.0,10.0,92,0.00,,,0.00,,2013-03-07 15:23:00,
2013-03-07 10:33:00,33.0,31.0,30.28,West,279,6.0,11.0,92,0.00,,,0.00,,2013-03-07 15:33:00,
2013-03-07 10:42:00,33.0,31.0,30.28,West,279,6.0,11.0,92,0.00,,,0.00,,2013-03-07 15:42:00,
2013-03-07 10:52:00,33.0,31.0,30.28,West,278,5.0,10.0,91,0.00,,,0.00,,2013-03-07 15:52:00,
2013-03-07 11:02:00,33.0,31.0,30.28,West,274,7.0,10.0,91,0.00,,,0.00,,2013-03-07 16:02:00,
2013-03-07 11:13:00,33.0,31.0,30.28,West,274,7.0,10.0,91,0.00,,,0.00,,2013-03-07 16:13:00,
2013-03-07 11:24:00,33.0,31.0,30.29,NW,313,6.0,9.0,91,0.00,,,0.00,,2013-03-07 16:24:00,
2013-03-07 11:33:00,33.0,31.0,30.29,NW,304,5.0,10.0,91,0.00,,,0.00,,2013-03-07 16:33:00,
2013-03-07 11:43:00,33.0,31.0,30.29,NW,304,5.0,10.0,91,0.00,,,0.00,,2013-03-07 16:43:00,
2013-03-07 11:52:00,33.0,31.0,30.29,WNW,288,5.0,10.0,91,0.00,,,0.00,,2013-03-07 16:52:00,
2013-03-07 12:03:00,33.0,31.0,30.29,West,271,3.0,8.0,91,0.00,,,0.00,,2013-03-07 17:03:00,
2013-03-07 12:12:00,33.0,31.0,30.29,West,271,3.0,8.0,91,0.00,,,0.00,,2013-03-07 17:12:00,
2013-03-07 12:23:00,33.0,30.0,30.29,NNW,330,4.0,7.0,90,0.00,,,0.00,,2013-03-07 17:23:00,
2013-03-07 12:33:00,33.0,30.0,30.29,WNW,297,4.0,8.0,90,0.00,,,0.00,,2013-03-07 17:33:00,
2013-03-07 12:43:00,33.0,30.0,30.29,WNW,297,4.0,8.0,90,0.00,,,0.00,,2013-03-07 17:43:00,
2013-03-07 12:53:00,34.0,31.0,30.30,WNW,300,6.0,11.0,89,0.00,,,0.00,,2013-03-07 17:53:00,
2013-03-07 13:04:00,33.0,30.0,30.29,WNW,286,6.0,10.0,89,0.00,,,0.00,,2013-03-07 18:04:00,
2013-03-07 13:13:00,33.0,30.0,30.29,WNW,286,6.0,10.0,89,0.00,,,0.00,,2013-03-07 18:13:00,
2013-03-07 13:22:00,34.0,31.0,30.30,NNW,347,4.0,9.0,89,0.00,,,0.00,,2013-03-07 18:22:00,
2013-03-07 13:32:00,34.0,31.0,30.29,West,281,5.0,13.0,88,0.00,,,0.00,,2013-03-07 18:32:00,
2013-03-07 13:42:00,34.0,31.0,30.29,West,281,5.0,13.0,88,0.00,,,0.00,,2013-03-07 18:42:00,
2013-03-07 13:52:00,33.0,30.0,30.29,WNW,292,5.0,11.0,89,0.00,,,0.00,,2013-03-07 18:52:00,
2013-03-07 14:03:00,33.0,30.0,30.29,North,5,6.0,10.0,90,0.00,,,0.00,,2013-03-07 19:03:00,
2013-03-07 14:12:00,33.0,30.0,30.29,North,5,6.0,10.0,90,0.00,,,0.00,,2013-03-07 19:12:00,
2013-03-07 14:23:00,33.0,31.0,30.29,NW,311,6.0,9.0,91,0.00,,,0.00,,2013-03-07 19:23:00,
2013-03-07 14:35:00,33.0,31.0,30.28,WNW,300,6.0,11.0,91,0.00,,,0.00,,2013-03-07 19:35:00,
2013-03-07 14:43:00,33.0,31.0,30.28,WNW,300,6.0,11.0,91,0.00,,,0.00,,2013-03-07 19:43:00,
2013-03-07 14:52:00,33.0,31.0,30.28,WNW,301,5.0,8.0,92,0.00,,,0.00,,2013-03-07 19:52:00,
2013-03-07 15:02:00,33.0,31.0,30.28,NW,315,5.0,10.0,92,0.00,,,0.00,,2013-03-07 20:02:00,
2013-03-07 15:13:00,33.0,31.0,30.28,NW,315,5.0,10.0,92,0.00,,,0.00,,2013-03-07 20:13:00,
2013-03-07 15:22:00,33.0,31.0,30.29,NW,309,7.0,10.0,92,0.00,,,0.00,,2013-03-07 20:22:00,
2013-03-07 15:34:00,32.0,30.0,30.29,NW,313,4.0,9.0,92,0.00,,,0.00,,2013-03-07 20:34:00,
2013-03-07 15:43:00,32.0,30.0,30.29,NW,313,4.0,9.0,92,0.00,,,0.00,,2013-03-07 20:43:00,
2013-03-07 15:53:00,32.0,30.0,30.30,NW,317,5.0,10.0,92,0.00,,,0.00,,2013-03-07 20:53:00,
2013-03-07 16:03:00,33.0,31.0,30.30,WNW,294,4.0,9.0,92,0.00,,,0.00,,2013-03-07 21:03:00,
2013-03-07 16:12:00,33.0,31.0,30.30,WNW,294,4.0,9.0,92,0.00,,,0.00,,2013-03-07 21:12:00,
2013-03-07 16:23:00,33.0,31.0,30.31,WNW,303,4.0,10.0,92,0.00,,,0.00,,2013-03-07 21:23:00,
2013-03-07 16:33:00,33.0,31.0,30.31,WNW,303,4.0,10.0,92,0.00,,,0.00,,2013-03-07 21:33:00,
2013-03-07 16:43:00,33.0,31.0,30.31,WNW,303,4.0,10.0,92,0.00,,,0.00,,2013-03-07 21:43:00,
2013-03-07 16:52:00,32.0,30.0,30.31,WNW,303,5.0,10.0,93,0.00,,,0.00,,2013-03-07 21:52:00,
2013-03-07 17:02:00,32.0,30.0,30.31,NW,313,5.0,10.0,93,0.00,,,0.00,,2013-03-07 22:02:00,
2013-03-07 17:12:00,32.0,30.0,30.31,NW,313,5.0,10.0,93,0.00,,,0.00,,2013-03-07 22:12:00,
2013-03-07 17:23:00,32.0,30.0,30.32,NNW,338,5.0,9.0,94,0.00,,,0.00,,2013-03-07 22:23:00,
2013-03-07 17:33:00,32.0,30.0,30.32,NNW,335,5.0,10.0,94,0.00,,,0.00,,2013-03-07 22:33:00,
2013-03-07 17:43:00,32.0,30.0,30.32,NNW,335,5.0,10.0,94,0.00,,,0.00,,2013-03-07 22:43:00,
2013-03-07 17:53:00,32.0,30.0,30.32,NW,321,5.0,9.0,93,0.00,,,0.00,,2013-03-07 22:53:00,
2013-03-07 18:03:00,32.0,30.0,30.33,NNW,338,2.0,7.0,93,0.00,,,0.00,,2013-03-07 23:03:00,
2013-03-07 18:13:00,32.0,30.0,30.33,NNW,338,2.0,7.0,93,0.00,,,0.00,,2013-03-07 23:13:00,
2013-03-07 18:22:00,32.0,30.0,30.33,NW,313,5.0,9.0,93,0.00,,,0.00,,2013-03-07 23:22:00,
2013-03-07 18:34:00,32.0,30.0,30.34,NW,323,2.0,9.0,92,0.00,,,0.00,,2013-03-07 23:34:00,
2013-03-07 18:43:00,32.0,30.0,30.34,NW,323,2.0,9.0,92,0.00,,,0.00,,2013-03-07 23:43:00,
2013-03-07 18:53:00,32.0,30.0,30.34,North,9,2.0,7.0,92,0.00,,,0.00,,2013-03-07 23:53:00,
2013-03-07 19:04:00,32.0,30.0,30.34,NNW,332,2.0,7.0,92,0.00,,,0.00,,2013-03-08 00:04:00,
2013-03-07 19:13:00,32.0,30.0,30.34,NNW,332,2.0,7.0,92,0.00,,,0.00,,2013-03-08 00:13:00,
2013-03-07 19:23:00,31.0,29.0,30.34,NW,321,3.0,7.0,92,0.00,,,0.00,,2013-03-08 00:23:00,
2013-03-07 19:34:00,31.0,29.0,30.35,NW,309,3.0,9.0,92,0.00,,,0.00,,2013-03-08 00:34:00,
2013-03-07 19:44:00,31.0,29.0,30.35,NW,309,3.0,9.0,92,0.00,,,0.00,,2013-03-08 00:44:00,
2013-03-07 19:53:00,31.0,29.0,30.35,NW,306,2.0,7.0,91,0.00,,,0.00,,2013-03-08 00:53:00,
2013-03-07 20:02:00,31.0,28.0,30.35,WNW,289,5.0,9.0,90,0.00,,,0.00,,2013-03-08 01:02:00,
2013-03-07 20:11:00,31.0,28.0,30.35,WNW,289,5.0,9.0,90,0.00,,,0.00,,2013-03-08 01:11:00,
2013-03-07 20:22:00,31.0,28.0,30.35,NNW,329,4.0,8.0,90,0.00,,,0.00,,2013-03-08 01:22:00,
2013-03-07 20:33:00,31.0,28.0,30.36,NW,319,2.0,9.0,90,0.00,,,0.00,,2013-03-08 01:33:00,
2013-03-07 20:42:00,31.0,28.0,30.36,NW,319,2.0,9.0,90,0.00,,,0.00,,2013-03-08 01:42:00,
2013-03-07 20:52:00,31.0,28.0,30.36,NNW,336,5.0,9.0,89,0.00,,,0.00,,2013-03-08 01:52:00,
2013-03-07 21:02:00,30.0,27.0,30.37,NW,317,3.0,10.0,89,0.00,,,0.00,,2013-03-08 02:02:00,
2013-03-07 21:12:00,30.0,28.0,30.37,NW,323,3.0,12.0,91,0.00,,,0.00,,2013-03-08 02:12:00,
2013-03-07 21:22:00,30.0,28.0,30.37,NW,323,3.0,12.0,91,0.00,,,0.00,,2013-03-08 02:22:00,
2013-03-07 21:32:00,30.0,28.0,30.37,NNW,347,6.0,10.0,91,0.00,,,0.00,,2013-03-08 02:32:00,
2013-03-07 21:42:00,30.0,28.0,30.37,NNW,347,6.0,10.0,91,0.00,,,0.00,,2013-03-08 02:42:00,
2013-03-07 21:52:00,29.0,26.0,30.37,NNE,15,5.0,11.0,90,0.00,,,0.00,,2013-03-08 02:52:00,
2013-03-07 22:02:00,29.0,26.0,30.37,NNW,340,5.0,10.0,90,0.00,,,0.00,,2013-03-08 03:02:00,
2013-03-07 22:12:00,29.0,26.0,30.37,NNW,340,5.0,10.0,90,0.00,,,0.00,,2013-03-08 03:12:00,
2013-03-07 22:22:00,29.0,26.0,30.37,NNE,22,5.0,10.0,90,0.00,,,0.00,,2013-03-08 03:22:00,
2013-03-07 22:33:00,29.0,26.0,30.37,NNW,336,4.0,9.0,89,0.00,,,0.00,,2013-03-08 03:33:00,
2013-03-07 22:43:00,29.0,26.0,30.37,NNW,336,4.0,9.0,89,0.00,,,0.00,,2013-03-08 03:43:00,
2013-03-07 22:52:00,28.0,25.0,30.37,NNW,333,1.0,8.0,90,0.00,,,0.00,,2013-03-08 03:52:00,
2013-03-07 23:02:00,28.0,25.0,30.38,NNE,17,2.0,8.0,90,0.00,,,0.00,,2013-03-08 04:02:00,
2013-03-07 23:11:00,28.0,25.0,30.38,NNE,17,2.0,8.0,90,0.00,,,0.00,,2013-03-08 04:11:00,
2013-03-07 23:22:00,28.0,25.0,30.37,NNW,330,2.0,6.0,90,0.00,,,0.00,,2013-03-08 04:22:00,
2013-03-07 23:32:00,28.0,25.0,30.37,NNW,336,2.0,6.0,90,0.00,,,0.00,,2013-03-08 04:32:00,
2013-03-07 23:42:00,28.0,25.0,30.37,NNW,336,2.0,6.0,90,0.00,,,0.00,,2013-03-08 04:42:00,
2013-03-07 23:52:00,28.0,25.0,30.38,NNW,342,0.0,3.0,90,0.00,,,0.00,,2013-03-08 04:52:00,